Time;durP1;ratioP1;P1;durP2;ratioP2;P2;SDS_P1;SDS_P2;PMS_P1;PMS_P2;Temp;Humidity;BMP_temperature;BMP_pressure;BME280_temperature;BME280_humidity;BME280_pressure;Samples;Min_cycle;Max_cycle;Signal;HPM_P1;HPM_P2
2021/11/15 00:02:09;;;;;;;33.55;12.65;;;;;;;;;;5024061;28;20116;-54
2021/11/15 00:04:36;;;;;;;29.15;12.07;;;;;;;;;;5019930;28;20025;-56
2021/11/15 00:07:02;;;;;;;25.15;11.32;;;;;;;;;;5018078;28;20028;-56
2021/11/15 00:09:28;;;;;;;23.23;9.75;;;;;;;;;;5021081;28;20034;-55
2021/11/15 00:11:54;;;;;;;24.58;9.90;;;;;;;;;;5021307;28;20112;-56
2021/11/15 00:14:20;;;;;;;27.77;11.48;;;;;;;;;;5021082;28;20106;-56
2021/11/15 00:16:45;;;;;;;22.70;9.90;;;;;;;;;;5025367;28;20109;-57
2021/11/15 00:19:11;;;;;;;24.98;10.25;;;;;;;;;;5018908;28;20125;-56
2021/11/15 00:21:36;;;;;;;30.23;11.93;;;;;;;;;;5019447;28;20073;-55
2021/11/15 00:24:03;;;;;;;28.33;10.95;;;;;;;;;;5020087;28;20100;-57
2021/11/15 00:26:28;;;;;;;25.30;10.55;;;;;;;;;;5023429;28;20033;-56
2021/11/15 00:28:54;;;;;;;28.15;10.38;;;;;;;;;;5015722;28;20091;-58
2021/11/15 00:31:22;;;;;;;28.08;11.27;;;;;;;;;;5019506;28;20026;-56
2021/11/15 00:33:47;;;;;;;22.60;10.80;;;;;;;;;;5023108;28;20496;-57
2021/11/15 00:36:13;;;;;;;24.90;10.57;;;;;;;;;;5015446;28;20052;-56
2021/11/15 00:38:38;;;;;;;23.20;10.25;;;;;;;;;;5018271;28;20408;-56
2021/11/15 00:41:04;;;;;;;22.38;9.73;;;;;;;;;;5024218;28;20037;-56
2021/11/15 00:43:29;;;;;;;25.02;10.25;;;;;;;;;;5021784;28;20033;-56
2021/11/15 00:45:55;;;;;;;25.77;11.13;;;;;;;;;;5025850;28;20503;-55
2021/11/15 00:48:21;;;;;;;21.42;8.98;;;;;;;;;;5025010;28;20376;-56
2021/11/15 00:50:46;;;;;;;23.50;9.57;;;;;;;;;;5022519;28;20040;-55
2021/11/15 00:53:12;;;;;;;23.23;10.13;;;;;;;;;;5025367;28;20472;-56
2021/11/15 00:55:37;;;;;;;23.65;10.10;;;;;;;;;;5022848;28;20040;-54
2021/11/15 00:58:03;;;;;;;26.27;10.50;;;;;;;;;;5026949;28;20049;-55
2021/11/15 01:00:30;;;;;;;24.40;10.32;;;;;;;;;;5014674;28;20112;-55
2021/11/15 01:02:57;;;;;;;28.73;11.52;;;;;;;;;;5021805;28;20032;-56
2021/11/15 01:05:24;;;;;;;28.33;10.65;;;;;;;;;;5026669;28;20778;-56
2021/11/15 01:07:50;;;;;;;26.08;10.18;;;;;;;;;;5023282;28;20025;-56
2021/11/15 01:10:18;;;;;;;23.27;9.20;;;;;;;;;;5025977;28;20043;-55
2021/11/15 01:12:44;;;;;;;24.70;10.02;;;;;;;;;;5021071;28;20041;-56
2021/11/15 01:15:14;;;;;;;22.65;9.50;;;;;;;;;;5021881;28;20486;-54
2021/11/15 01:17:39;;;;;;;22.85;9.82;;;;;;;;;;5020265;28;20021;-56
2021/11/15 01:20:08;;;;;;;24.00;9.00;;;;;;;;;;5022230;28;20586;-56
2021/11/15 01:22:33;;;;;;;24.00;9.80;;;;;;;;;;5015681;28;21043;-55
2021/11/15 01:24:59;;;;;;;23.40;10.13;;;;;;;;;;5023397;28;20036;-55
2021/11/15 01:27:25;;;;;;;26.08;10.88;;;;;;;;;;5026631;28;20121;-55
2021/11/15 01:29:50;;;;;;;26.77;11.73;;;;;;;;;;5020021;28;20373;-56
2021/11/15 01:32:16;;;;;;;23.83;9.60;;;;;;;;;;5025546;28;20033;-55
2021/11/15 01:34:41;;;;;;;23.75;9.30;;;;;;;;;;5031347;28;20025;-55
2021/11/15 01:37:07;;;;;;;25.50;10.02;;;;;;;;;;5024578;28;20391;-56
2021/11/15 01:39:32;;;;;;;24.17;10.57;;;;;;;;;;5021996;28;20033;-56
2021/11/15 01:41:58;;;;;;;25.02;10.35;;;;;;;;;;5021641;28;20393;-55
2021/11/15 01:44:24;;;;;;;25.13;9.45;;;;;;;;;;5023563;28;20034;-56
2021/11/15 01:46:50;;;;;;;25.52;10.73;;;;;;;;;;5018819;28;20052;-55
2021/11/15 01:49:16;;;;;;;24.40;10.32;;;;;;;;;;5022080;28;20083;-56
2021/11/15 01:51:43;;;;;;;25.10;10.00;;;;;;;;;;5019593;28;20051;-56
2021/11/15 01:54:09;;;;;;;22.30;9.77;;;;;;;;;;5022990;28;20216;-56
2021/11/15 01:56:34;;;;;;;24.55;11.18;;;;;;;;;;5022274;28;20487;-57
2021/11/15 01:59:02;;;;;;;22.10;9.40;;;;;;;;;;5027488;28;20033;-56
2021/11/15 02:01:28;;;;;;;23.17;9.70;;;;;;;;;;5022429;28;20072;-57
2021/11/15 02:03:54;;;;;;;20.33;8.70;;;;;;;;;;5021016;28;20057;-57
2021/11/15 02:06:19;;;;;;;23.88;9.35;;;;;;;;;;5027305;28;20022;-56
2021/11/15 02:08:45;;;;;;;21.02;9.27;;;;;;;;;;5020996;28;20095;-56
2021/11/15 02:11:10;;;;;;;21.63;9.45;;;;;;;;;;5021726;28;20033;-57
2021/11/15 02:13:37;;;;;;;21.40;8.93;;;;;;;;;;5021727;28;20107;-57
2021/11/15 02:16:02;;;;;;;24.25;9.77;;;;;;;;;;5022073;28;20519;-55
2021/11/15 02:18:28;;;;;;;22.98;9.50;;;;;;;;;;5021993;28;20044;-55
2021/11/15 02:20:57;;;;;;;20.65;8.93;;;;;;;;;;5023812;28;20029;-56
2021/11/15 02:23:24;;;;;;;20.95;8.68;;;;;;;;;;5020025;28;20037;-56
2021/11/15 02:25:52;;;;;;;20.45;9.48;;;;;;;;;;5019902;28;20156;-56
2021/11/15 02:28:18;;;;;;;19.92;8.32;;;;;;;;;;5023877;28;20281;-56
2021/11/15 02:30:44;;;;;;;19.88;9.07;;;;;;;;;;5022667;28;20199;-56
2021/11/15 02:33:10;;;;;;;19.60;8.77;;;;;;;;;;5023999;28;20028;-55
2021/11/15 02:35:38;;;;;;;21.85;9.20;;;;;;;;;;5023044;28;20025;-54
2021/11/15 02:38:04;;;;;;;19.58;8.60;;;;;;;;;;5019654;28;20457;-56
2021/11/15 02:40:29;;;;;;;19.77;9.15;;;;;;;;;;5020946;28;20088;-56
2021/11/15 02:42:56;;;;;;;21.52;9.75;;;;;;;;;;5023855;28;20033;-56
2021/11/15 02:45:24;;;;;;;22.50;9.30;;;;;;;;;;5017123;28;20615;-55
2021/11/15 02:47:50;;;;;;;19.67;9.05;;;;;;;;;;5020836;28;20041;-55
2021/11/15 02:50:19;;;;;;;21.25;9.57;;;;;;;;;;5020859;28;20133;-56
2021/11/15 02:52:57;;;;;;;22.52;9.55;;;;;;;;;;5014944;28;20048;-56
2021/11/15 02:55:25;;;;;;;21.40;9.05;;;;;;;;;;5015736;28;20432;-57
2021/11/15 02:57:52;;;;;;;23.85;9.13;;;;;;;;;;5023559;28;20443;-56
2021/11/15 03:00:38;;;;;;;20.35;9.18;;;;;;;;;;5016071;28;20029;-56
2021/11/15 03:03:04;;;;;;;24.23;9.57;;;;;;;;;;5013423;28;20033;-56
2021/11/15 03:05:32;;;;;;;28.50;10.27;;;;;;;;;;5022813;28;20072;-57
2021/11/15 03:07:59;;;;;;;25.08;10.05;;;;;;;;;;5023478;28;20026;-55
2021/11/15 03:10:25;;;;;;;22.25;10.13;;;;;;;;;;5023656;28;20029;-55
2021/11/15 03:12:51;;;;;;;24.33;9.45;;;;;;;;;;5019607;28;20029;-56
2021/11/15 03:15:30;;;;;;;21.40;10.05;;;;;;;;;;5020276;28;20064;-55
2021/11/15 03:18:07;;;;;;;22.67;10.57;;;;;;;;;;5023722;28;20060;-56
2021/11/15 03:20:37;;;;;;;26.52;11.13;;;;;;;;;;5018812;28;20095;-55
2021/11/15 03:23:07;;;;;;;24.60;9.95;;;;;;;;;;5019863;28;20542;-54
2021/11/15 03:25:33;;;;;;;27.52;11.00;;;;;;;;;;5018851;28;20028;-55
2021/11/15 03:27:58;;;;;;;25.10;10.23;;;;;;;;;;5021659;28;20120;-56
2021/11/15 03:30:26;;;;;;;26.73;10.38;;;;;;;;;;5023896;28;20107;-56
2021/11/15 03:32:52;;;;;;;26.95;10.43;;;;;;;;;;5021266;28;20030;-57
2021/11/15 03:35:18;;;;;;;28.50;11.30;;;;;;;;;;5025957;28;20091;-56
2021/11/15 03:37:45;;;;;;;28.17;12.38;;;;;;;;;;5014245;28;20029;-55
2021/11/15 03:40:14;;;;;;;31.65;13.43;;;;;;;;;;5016512;28;20029;-55
2021/11/15 03:42:42;;;;;;;34.28;12.75;;;;;;;;;;5022328;28;20036;-55
2021/11/15 03:45:09;;;;;;;25.35;10.82;;;;;;;;;;5017423;28;20030;-56
2021/11/15 03:47:35;;;;;;;29.75;11.70;;;;;;;;;;5022421;28;20436;-56
2021/11/15 03:50:00;;;;;;;26.13;10.55;;;;;;;;;;5018089;28;20087;-55
2021/11/15 03:52:27;;;;;;;29.55;11.77;;;;;;;;;;5023416;28;20033;-56
2021/11/15 03:54:52;;;;;;;33.30;12.07;;;;;;;;;;5014914;28;20080;-56
2021/11/15 03:57:18;;;;;;;31.30;11.77;;;;;;;;;;5017167;28;20038;-56
2021/11/15 03:59:43;;;;;;;26.50;11.43;;;;;;;;;;5017560;28;20030;-55
2021/11/15 04:02:10;;;;;;;28.20;11.52;;;;;;;;;;5020100;28;20026;-56
2021/11/15 04:04:53;;;;;;;26.35;10.90;;;;;;;;;;5019134;28;20436;-55
2021/11/15 04:07:28;;;;;;;26.35;11.07;;;;;;;;;;5020797;28;20034;-55
2021/11/15 04:09:59;;;;;;;26.58;10.63;;;;;;;;;;5019497;28;20038;-57
2021/11/15 04:12:25;;;;;;;30.60;12.07;;;;;;;;;;5023245;28;20440;-55
2021/11/15 04:14:51;;;;;;;27.40;10.98;;;;;;;;;;5021676;28;20041;-55
2021/11/15 04:17:17;;;;;;;25.73;11.13;;;;;;;;;;5022192;28;20029;-55
2021/11/15 04:19:43;;;;;;;25.95;10.65;;;;;;;;;;5022715;28;20021;-56
2021/11/15 04:22:08;;;;;;;29.15;11.02;;;;;;;;;;5009396;28;20031;-56
2021/11/15 04:24:34;;;;;;;29.73;10.75;;;;;;;;;;5027430;28;20026;-57
2021/11/15 04:26:59;;;;;;;23.70;10.40;;;;;;;;;;5024088;28;20032;-55
2021/11/15 04:29:25;;;;;;;23.85;10.18;;;;;;;;;;5024585;28;20080;-55
2021/11/15 04:31:50;;;;;;;25.40;10.43;;;;;;;;;;5028850;28;20077;-56
2021/11/15 04:34:16;;;;;;;26.15;10.30;;;;;;;;;;5025154;28;20469;-57
2021/11/15 04:36:41;;;;;;;28.50;10.73;;;;;;;;;;5026186;28;20045;-56
2021/11/15 04:39:07;;;;;;;25.58;10.63;;;;;;;;;;5019591;28;20099;-57
2021/11/15 04:41:32;;;;;;;26.67;11.15;;;;;;;;;;5018278;28;20554;-57
2021/11/15 04:43:57;;;;;;;25.23;11.05;;;;;;;;;;5026722;28;20029;-55
2021/11/15 04:46:23;;;;;;;26.67;10.98;;;;;;;;;;5023211;28;20386;-57
2021/11/15 04:48:48;;;;;;;25.02;11.10;;;;;;;;;;5022566;28;20116;-58
2021/11/15 04:51:14;;;;;;;28.52;11.82;;;;;;;;;;5022392;28;20112;-55
2021/11/15 04:53:39;;;;;;;26.50;11.75;;;;;;;;;;5025392;28;20032;-56
2021/11/15 04:56:07;;;;;;;26.48;10.77;;;;;;;;;;5027544;28;20025;-57
2021/11/15 04:58:33;;;;;;;28.17;11.90;;;;;;;;;;5022995;28;20032;-55
2021/11/15 05:00:58;;;;;;;26.45;10.95;;;;;;;;;;5022631;28;20057;-55
2021/11/15 05:03:24;;;;;;;27.52;12.05;;;;;;;;;;5023557;28;20080;-56
2021/11/15 05:05:49;;;;;;;27.45;11.07;;;;;;;;;;5023369;28;20029;-55
2021/11/15 05:08:15;;;;;;;31.02;12.35;;;;;;;;;;5021599;28;20037;-56
2021/11/15 05:10:41;;;;;;;26.90;11.98;;;;;;;;;;5019720;28;20037;-56
2021/11/15 05:13:07;;;;;;;26.23;12.05;;;;;;;;;;5020601;28;20029;-55
2021/11/15 05:15:32;;;;;;;25.95;11.02;;;;;;;;;;5025434;28;20037;-55
2021/11/15 05:17:58;;;;;;;29.40;11.65;;;;;;;;;;5018502;28;20384;-56
2021/11/15 05:20:25;;;;;;;31.15;11.88;;;;;;;;;;5018649;28;20030;-56
2021/11/15 05:22:50;;;;;;;27.15;10.80;;;;;;;;;;5021309;28;20028;-55
2021/11/15 05:25:17;;;;;;;28.42;11.32;;;;;;;;;;5023284;28;20032;-55
2021/11/15 05:27:43;;;;;;;27.13;11.10;;;;;;;;;;5021969;28;20029;-55
2021/11/15 05:30:11;;;;;;;25.40;11.18;;;;;;;;;;5024980;28;20091;-56
2021/11/15 05:32:37;;;;;;;27.63;11.68;;;;;;;;;;5020030;28;20032;-55
2021/11/15 05:35:03;;;;;;;28.02;12.43;;;;;;;;;;5018361;28;20472;-55
2021/11/15 05:37:29;;;;;;;25.23;11.27;;;;;;;;;;5021885;28;20392;-56
2021/11/15 05:39:54;;;;;;;29.35;12.30;;;;;;;;;;5020129;28;20044;-57
2021/11/15 05:42:20;;;;;;;27.27;11.30;;;;;;;;;;5028846;28;20033;-55
2021/11/15 05:44:46;;;;;;;28.00;12.10;;;;;;;;;;5018355;28;20443;-55
2021/11/15 05:47:11;;;;;;;28.25;12.25;;;;;;;;;;5017948;28;20109;-57
2021/11/15 05:49:37;;;;;;;31.10;12.40;;;;;;;;;;5021766;28;20032;-56
2021/11/15 05:52:03;;;;;;;34.95;14.25;;;;;;;;;;5017106;28;20025;-55
2021/11/15 05:54:28;;;;;;;36.65;13.57;;;;;;;;;;5025694;28;20121;-55
2021/11/15 05:56:54;;;;;;;34.13;12.77;;;;;;;;;;5022926;28;20116;-57
2021/11/15 05:59:19;;;;;;;33.20;13.13;;;;;;;;;;5024515;28;20094;-54
2021/11/15 06:01:45;;;;;;;35.55;14.30;;;;;;;;;;5022108;28;20116;-55
2021/11/15 06:04:11;;;;;;;27.63;12.23;;;;;;;;;;5023908;28;20040;-54
2021/11/15 06:06:37;;;;;;;34.10;13.70;;;;;;;;;;5021029;28;20501;-56
2021/11/15 06:09:03;;;;;;;31.25;12.57;;;;;;;;;;5016100;28;20485;-55
2021/11/15 06:11:28;;;;;;;28.38;11.85;;;;;;;;;;5017846;28;20064;-57
2021/11/15 06:13:54;;;;;;;26.88;11.32;;;;;;;;;;5018626;28;20500;-58
2021/11/15 06:16:19;;;;;;;29.45;12.73;;;;;;;;;;5017702;28;20030;-57
2021/11/15 06:18:45;;;;;;;30.17;12.32;;;;;;;;;;5020069;28;20029;-56
2021/11/15 06:21:10;;;;;;;28.10;11.65;;;;;;;;;;5020342;28;20021;-56
2021/11/15 06:23:36;;;;;;;31.70;12.63;;;;;;;;;;5019457;28;20021;-56
2021/11/15 06:26:01;;;;;;;29.30;12.38;;;;;;;;;;5020261;28;20555;-56
2021/11/15 06:28:27;;;;;;;42.20;13.35;;;;;;;;;;5023413;28;20044;-57
2021/11/15 06:30:53;;;;;;;32.65;13.05;;;;;;;;;;5022143;28;20475;-56
2021/11/15 06:33:19;;;;;;;27.83;12.05;;;;;;;;;;5021771;28;20034;-56
2021/11/15 06:35:44;;;;;;;36.08;14.20;;;;;;;;;;5026352;28;20534;-55
2021/11/15 06:38:10;;;;;;;28.08;11.57;;;;;;;;;;5019158;28;20030;-56
2021/11/15 06:40:36;;;;;;;34.75;14.52;;;;;;;;;;5015377;28;20021;-57
2021/11/15 06:43:01;;;;;;;32.25;12.77;;;;;;;;;;5017550;28;20506;-57
2021/11/15 06:45:27;;;;;;;31.15;13.43;;;;;;;;;;5018456;28;20026;-56
2021/11/15 06:47:53;;;;;;;32.40;12.60;;;;;;;;;;5020502;28;20033;-56
2021/11/15 06:50:20;;;;;;;28.75;12.25;;;;;;;;;;5014807;28;20029;-56
2021/11/15 06:52:47;;;;;;;29.52;12.07;;;;;;;;;;5019188;28;20037;-55
2021/11/15 06:55:14;;;;;;;26.65;10.95;;;;;;;;;;5016842;28;20040;-54
2021/11/15 06:57:40;;;;;;;28.02;10.82;;;;;;;;;;5021032;28;20029;-53
2021/11/15 07:00:11;;;;;;;26.20;10.85;;;;;;;;;;5023455;28;20040;-56
2021/11/15 07:02:37;;;;;;;29.13;12.05;;;;;;;;;;5013763;28;20471;-57
2021/11/15 07:05:03;;;;;;;28.45;12.05;;;;;;;;;;5015917;28;20030;-57
2021/11/15 07:07:28;;;;;;;29.23;13.05;;;;;;;;;;5017552;28;20014;-56
2021/11/15 07:09:54;;;;;;;31.20;12.30;;;;;;;;;;5013505;28;20025;-57
2021/11/15 07:12:19;;;;;;;33.05;13.35;;;;;;;;;;5018263;28;20132;-57
2021/11/15 07:14:45;;;;;;;26.48;11.75;;;;;;;;;;5025696;28;20032;-57
2021/11/15 07:17:10;;;;;;;30.55;11.65;;;;;;;;;;5016772;28;20042;-55
2021/11/15 07:19:37;;;;;;;26.92;12.32;;;;;;;;;;5020394;28;20025;-58
2021/11/15 07:22:03;;;;;;;26.98;11.20;;;;;;;;;;5018258;28;20561;-57
2021/11/15 07:24:29;;;;;;;28.67;11.57;;;;;;;;;;5024487;28;20183;-57
2021/11/15 07:26:54;;;;;;;23.33;10.25;;;;;;;;;;5019650;28;20101;-58
2021/11/15 07:29:20;;;;;;;31.85;11.20;;;;;;;;;;5022460;28;20072;-57
2021/11/15 07:31:46;;;;;;;26.50;10.82;;;;;;;;;;5010832;28;20044;-57
2021/11/15 07:34:12;;;;;;;26.17;10.45;;;;;;;;;;5019239;28;20448;-58
2021/11/15 07:36:37;;;;;;;30.75;10.95;;;;;;;;;;5017035;28;20038;-57
2021/11/15 07:39:04;;;;;;;28.60;10.63;;;;;;;;;;5016515;28;20499;-54
2021/11/15 07:41:29;;;;;;;25.30;11.05;;;;;;;;;;5019363;28;20132;-56
2021/11/15 07:43:55;;;;;;;27.35;11.30;;;;;;;;;;5023960;28;20030;-57
2021/11/15 07:46:21;;;;;;;24.15;10.45;;;;;;;;;;5021461;28;20335;-57
2021/11/15 07:48:47;;;;;;;24.83;9.82;;;;;;;;;;5021822;28;20034;-58
2021/11/15 07:51:12;;;;;;;23.45;11.27;;;;;;;;;;5019694;28;20037;-56
2021/11/15 07:53:38;;;;;;;25.20;10.55;;;;;;;;;;5025261;28;20119;-56
2021/11/15 07:56:07;;;;;;;22.58;10.13;;;;;;;;;;5022550;28;20484;-55
2021/11/15 07:58:33;;;;;;;24.70;10.70;;;;;;;;;;5021104;28;20029;-56
2021/11/15 08:00:58;;;;;;;23.70;9.77;;;;;;;;;;5021271;28;20334;-56
2021/11/15 08:03:24;;;;;;;25.08;9.93;;;;;;;;;;5022784;28;20045;-57
2021/11/15 08:05:50;;;;;;;24.55;10.20;;;;;;;;;;5029981;28;20024;-56
2021/11/15 08:08:15;;;;;;;24.30;10.00;;;;;;;;;;5030422;28;20029;-56
2021/11/15 08:10:41;;;;;;;24.25;9.40;;;;;;;;;;5023384;28;20029;-56
2021/11/15 08:13:07;;;;;;;21.83;9.57;;;;;;;;;;5021662;28;20029;-56
2021/11/15 08:15:32;;;;;;;21.45;9.80;;;;;;;;;;5019130;28;20028;-55
2021/11/15 08:17:59;;;;;;;24.27;9.18;;;;;;;;;;5026883;28;20048;-55
2021/11/15 08:20:26;;;;;;;20.40;7.88;;;;;;;;;;5024866;28;20571;-55
2021/11/15 08:22:54;;;;;;;19.85;8.02;;;;;;;;;;5023164;28;20037;-56
2021/11/15 08:25:26;;;;;;;23.13;9.48;;;;;;;;;;5024592;28;20087;-56
2021/11/15 08:27:55;;;;;;;19.33;8.77;;;;;;;;;;5024853;28;20132;-56
2021/11/15 08:30:21;;;;;;;18.25;8.40;;;;;;;;;;5023389;28;20062;-55
2021/11/15 08:32:47;;;;;;;19.35;7.97;;;;;;;;;;5025704;28;20056;-55
2021/11/15 08:35:12;;;;;;;21.58;8.90;;;;;;;;;;5025551;28;20029;-57
2021/11/15 08:38:12;;;;;;;19.40;8.20;;;;;;;;;;5018287;28;20053;-56
2021/11/15 08:40:37;;;;;;;23.02;8.85;;;;;;;;;;5026940;28;20025;-57
2021/11/15 08:43:03;;;;;;;18.50;8.10;;;;;;;;;;5031443;28;20089;-55
2021/11/15 08:45:30;;;;;;;18.25;7.97;;;;;;;;;;5030810;28;20396;-57
2021/11/15 08:47:56;;;;;;;20.90;7.82;;;;;;;;;;5021092;28;20045;-55
2021/11/15 08:50:21;;;;;;;17.77;7.97;;;;;;;;;;5024193;28;20063;-54
2021/11/15 08:52:47;;;;;;;17.48;7.32;;;;;;;;;;5027702;28;20025;-56
2021/11/15 08:55:12;;;;;;;18.67;8.02;;;;;;;;;;5023665;28;20339;-56
2021/11/15 08:57:37;;;;;;;17.92;7.60;;;;;;;;;;5026729;28;20126;-54
2021/11/15 09:00:04;;;;;;;17.63;7.57;;;;;;;;;;5020350;28;20115;-57
2021/11/15 09:02:29;;;;;;;19.20;8.15;;;;;;;;;;5020413;28;20029;-57
2021/11/15 09:04:55;;;;;;;20.20;8.07;;;;;;;;;;5025410;28;20379;-56
2021/11/15 09:07:21;;;;;;;19.10;8.23;;;;;;;;;;5025161;28;20118;-57
2021/11/15 09:09:47;;;;;;;17.27;7.78;;;;;;;;;;5015098;28;20483;-57
2021/11/15 09:12:15;;;;;;;18.80;8.23;;;;;;;;;;5019080;28;20120;-54
2021/11/15 09:14:40;;;;;;;19.30;7.60;;;;;;;;;;5018621;28;20024;-55
2021/11/15 09:17:07;;;;;;;22.15;8.38;;;;;;;;;;5020822;28;20035;-57
2021/11/15 09:19:32;;;;;;;19.42;7.82;;;;;;;;;;5023762;28;20401;-56
2021/11/15 09:21:58;;;;;;;22.58;10.52;;;;;;;;;;5016725;28;20033;-57
2021/11/15 09:24:24;;;;;;;26.98;13.38;;;;;;;;;;5017254;28;20079;-57
2021/11/15 09:26:50;;;;;;;20.73;8.98;;;;;;;;;;5017069;28;20033;-56
2021/11/15 09:29:18;;;;;;;19.58;8.35;;;;;;;;;;5021262;28;20435;-57
2021/11/15 09:31:44;;;;;;;27.70;10.68;;;;;;;;;;5021711;28;20032;-57
2021/11/15 09:34:10;;;;;;;26.80;13.20;;;;;;;;;;5026351;28;20029;-57
2021/11/15 09:36:36;;;;;;;26.35;12.02;;;;;;;;;;5023993;28;20477;-57
2021/11/15 09:39:03;;;;;;;22.02;10.50;;;;;;;;;;5021786;28;20140;-57
2021/11/15 09:41:29;;;;;;;22.63;9.65;;;;;;;;;;5030516;28;20108;-56
2021/11/15 09:43:55;;;;;;;23.73;10.88;;;;;;;;;;5018094;28;20132;-57
2021/11/15 09:46:23;;;;;;;19.13;9.25;;;;;;;;;;5021274;28;20100;-58
2021/11/15 09:49:09;;;;;;;24.57;10.37;;;;;;;;;;5018456;28;20030;-57
2021/11/15 09:51:35;;;;;;;20.90;8.68;;;;;;;;;;5021740;28;20025;-57
2021/11/15 09:54:02;;;;;;;19.05;9.00;;;;;;;;;;5017152;28;20508;-57
2021/11/15 09:56:28;;;;;;;24.33;9.93;;;;;;;;;;5018888;28;20083;-55
2021/11/15 09:58:54;;;;;;;19.50;8.50;;;;;;;;;;5024617;28;20055;-58
2021/11/15 10:01:20;;;;;;;20.70;9.85;;;;;;;;;;5019846;28;20400;-57
2021/11/15 10:03:46;;;;;;;21.10;9.48;;;;;;;;;;5021337;28;20131;-57
2021/11/15 10:06:12;;;;;;;18.58;8.73;;;;;;;;;;5020423;28;20101;-57
2021/11/15 10:08:42;;;;;;;19.02;8.05;;;;;;;;;;5023734;28;20484;-59
2021/11/15 10:11:08;;;;;;;20.88;8.57;;;;;;;;;;5015787;28;20091;-58
2021/11/15 10:13:35;;;;;;;19.48;7.75;;;;;;;;;;5017192;28;20372;-57
2021/11/15 10:16:14;;;;;;;19.45;7.82;;;;;;;;;;5020781;28;20091;-56
2021/11/15 10:18:52;;;;;;;56.85;21.45;;;;;;;;;;5015188;28;20033;-57
2021/11/15 10:21:28;;;;;;;23.80;9.98;;;;;;;;;;5014012;28;20088;-56
2021/11/15 10:24:17;;;;;;;19.23;8.38;;;;;;;;;;5016141;28;20112;-56
2021/11/15 10:26:54;;;;;;;23.17;9.50;;;;;;;;;;5017586;28;20157;-55
2021/11/15 10:29:22;;;;;;;17.45;7.82;;;;;;;;;;5025244;28;20033;-56
2021/11/15 10:31:58;;;;;;;23.75;10.23;;;;;;;;;;5017409;28;20033;-56
2021/11/15 10:34:27;;;;;;;28.73;12.23;;;;;;;;;;5020087;28;20029;-56
2021/11/15 10:36:52;;;;;;;21.47;8.50;;;;;;;;;;5020292;28;20506;-56
2021/11/15 10:39:21;;;;;;;20.35;9.07;;;;;;;;;;5020757;28;20268;-57
2021/11/15 10:42:07;;;;;;;21.30;8.98;;;;;;;;;;5013804;28;20086;-56
2021/11/15 10:44:35;;;;;;;21.73;9.82;;;;;;;;;;5024528;28;20043;-56
2021/11/15 10:47:01;;;;;;;18.45;8.00;;;;;;;;;;5015662;28;20526;-56
2021/11/15 10:49:26;;;;;;;23.80;9.73;;;;;;;;;;5021670;28;20048;-57
2021/11/15 10:51:58;;;;;;;21.27;9.20;;;;;;;;;;5021687;28;20492;-56
2021/11/15 10:55:21;;;;;;;24.00;9.75;;;;;;;;;;5014868;28;20493;-57
2021/11/15 10:57:27;;;;;;;21.75;8.35;;;;;;;;;;5014249;28;22064;-57
2021/11/15 11:00:08;;;;;;;18.50;8.05;;;;;;;;;;5018583;28;20029;-55
2021/11/15 11:02:44;;;;;;;13.63;6.57;;;;;;;;;;5016665;28;20065;-55
2021/11/15 11:05:18;;;;;;;19.02;8.85;;;;;;;;;;5021377;28;20025;-57
2021/11/15 11:07:47;;;;;;;18.83;8.20;;;;;;;;;;5023680;28;20041;-55
2021/11/15 11:10:16;;;;;;;17.57;8.03;;;;;;;;;;5015505;28;20021;-55
2021/11/15 11:13:04;;;;;;;20.05;8.52;;;;;;;;;;5014321;28;20042;-55
2021/11/15 11:18:13;;;;;;;24.63;9.15;;;;;;;;;;5022512;28;20026;-56
2021/11/15 11:21:29;;;;;;;34.42;10.45;;;;;;;;;;5016409;28;20195;-56
2021/11/15 11:26:39;;;;;;;17.63;8.10;;;;;;;;;;5018937;28;20187;-56
2021/11/15 11:29:09;;;;;;;21.90;8.65;;;;;;;;;;5017122;28;20021;-54
2021/11/15 11:31:38;;;;;;;31.13;13.07;;;;;;;;;;5021555;28;20041;-56
2021/11/15 11:34:03;;;;;;;36.13;13.98;;;;;;;;;;5017926;28;20417;-56
2021/11/15 11:36:29;;;;;;;34.90;14.63;;;;;;;;;;5020502;28;20041;-57
2021/11/15 11:38:55;;;;;;;20.75;10.52;;;;;;;;;;5020888;28;20131;-57
2021/11/15 11:41:21;;;;;;;22.15;9.13;;;;;;;;;;5017179;28;20033;-55
2021/11/15 11:43:48;;;;;;;18.63;8.63;;;;;;;;;;5017909;28;20476;-57
2021/11/15 11:46:19;;;;;;;20.95;9.48;;;;;;;;;;5017471;28;20071;-56
2021/11/15 11:48:56;;;;;;;20.77;8.60;;;;;;;;;;5019703;28;20432;-56
2021/11/15 11:51:23;;;;;;;17.70;8.43;;;;;;;;;;5028141;28;20104;-57
2021/11/15 11:54:07;;;;;;;36.20;13.15;;;;;;;;;;5019336;28;20380;-57
2021/11/15 11:56:33;;;;;;;28.25;11.32;;;;;;;;;;5012915;28;20032;-56
2021/11/15 11:59:13;;;;;;;25.55;10.10;;;;;;;;;;5017953;28;20037;-56
2021/11/15 12:01:40;;;;;;;29.02;13.00;;;;;;;;;;5013556;28;20484;-56
2021/11/15 12:04:17;;;;;;;37.55;12.70;;;;;;;;;;5020245;28;20033;-56
2021/11/15 12:06:45;;;;;;;42.40;12.98;;;;;;;;;;5023037;28;20025;-54
2021/11/15 12:09:11;;;;;;;30.23;10.25;;;;;;;;;;5019657;28;20499;-56
2021/11/15 12:11:43;;;;;;;36.30;13.20;;;;;;;;;;5020155;28;20447;-56
2021/11/15 12:14:12;;;;;;;33.60;12.32;;;;;;;;;;5013927;28;20045;-57
2021/11/15 12:16:59;;;;;;;42.60;16.15;;;;;;;;;;5019075;28;20029;-56
2021/11/15 12:19:30;;;;;;;47.60;18.15;;;;;;;;;;5020925;28;20393;-55
2021/11/15 12:22:08;;;;;;;39.45;17.08;;;;;;;;;;5018727;28;20084;-57
2021/11/15 12:24:33;;;;;;;23.92;10.35;;;;;;;;;;5014792;28;20052;-54
2021/11/15 12:26:59;;;;;;;24.35;11.07;;;;;;;;;;5022777;28;20029;-55
2021/11/15 12:29:32;;;;;;;25.27;12.88;;;;;;;;;;5019256;28;20025;-55
2021/11/15 12:32:03;;;;;;;35.10;13.88;;;;;;;;;;5016363;28;20041;-54
2021/11/15 12:34:56;;;;;;;26.73;12.30;;;;;;;;;;5020952;28;20032;-57
2021/11/15 12:37:36;;;;;;;22.38;9.80;;;;;;;;;;5021802;28;20049;-57
2021/11/15 12:40:03;;;;;;;31.33;11.07;;;;;;;;;;5021132;28;20037;-57
2021/11/15 12:42:29;;;;;;;26.95;11.38;;;;;;;;;;5018538;28;20044;-56
2021/11/15 12:45:25;;;;;;;23.60;10.00;;;;;;;;;;5022875;28;20033;-53
2021/11/15 12:47:51;;;;;;;25.70;11.50;;;;;;;;;;5017218;28;20059;-59
2021/11/15 12:50:18;;;;;;;21.63;9.40;;;;;;;;;;5019227;28;20488;-56
2021/11/15 12:52:51;;;;;;;21.85;9.25;;;;;;;;;;5019924;28;20025;-55
2021/11/15 12:55:17;;;;;;;23.00;9.77;;;;;;;;;;5019341;28;20076;-58
2021/11/15 12:57:45;;;;;;;21.35;10.18;;;;;;;;;;5020931;28;20029;-58
2021/11/15 13:00:37;;;;;;;24.48;10.35;;;;;;;;;;5019882;28;20053;-57
2021/11/15 13:03:06;;;;;;;21.70;9.68;;;;;;;;;;5015793;28;20029;-56
2021/11/15 13:05:37;;;;;;;19.77;8.95;;;;;;;;;;5012461;28;20326;-56
2021/11/15 13:08:05;;;;;;;19.92;8.68;;;;;;;;;;5013069;28;20029;-54
2021/11/15 13:10:31;;;;;;;41.20;15.73;;;;;;;;;;5018232;28;20033;-53
2021/11/15 13:12:58;;;;;;;35.25;14.73;;;;;;;;;;5017929;28;20040;-57
2021/11/15 13:15:24;;;;;;;29.98;11.63;;;;;;;;;;5020661;28;20032;-56
2021/11/15 13:17:49;;;;;;;25.30;11.50;;;;;;;;;;5020388;28;20021;-55
2021/11/15 13:20:15;;;;;;;24.10;10.70;;;;;;;;;;5012817;28;20036;-56
2021/11/15 13:22:43;;;;;;;24.77;10.85;;;;;;;;;;5018551;28;20652;-56
2021/11/15 13:25:10;;;;;;;24.90;10.73;;;;;;;;;;5019526;28;20155;-56
2021/11/15 13:27:36;;;;;;;24.40;11.18;;;;;;;;;;5016782;28;20032;-56
2021/11/15 13:30:04;;;;;;;27.42;11.32;;;;;;;;;;5013954;28;20412;-57
2021/11/15 13:32:31;;;;;;;30.67;11.85;;;;;;;;;;5020648;28;20502;-56
2021/11/15 13:34:57;;;;;;;25.98;10.40;;;;;;;;;;5021805;28;20480;-55
2021/11/15 13:37:24;;;;;;;24.45;10.50;;;;;;;;;;5020863;28;20051;-55
2021/11/15 13:39:51;;;;;;;27.60;11.38;;;;;;;;;;5019203;28;20034;-56
2021/11/15 13:42:17;;;;;;;26.05;11.05;;;;;;;;;;5016244;28;20350;-56
2021/11/15 13:44:43;;;;;;;27.05;11.05;;;;;;;;;;5017813;28;20147;-55
2021/11/15 13:47:10;;;;;;;27.52;11.73;;;;;;;;;;5013680;28;20484;-54
2021/11/15 13:49:36;;;;;;;30.35;12.75;;;;;;;;;;5019659;28;20029;-56
2021/11/15 13:52:04;;;;;;;27.25;11.32;;;;;;;;;;5020647;28;20029;-55
2021/11/15 13:54:29;;;;;;;27.65;11.40;;;;;;;;;;5025640;28;20048;-57
2021/11/15 13:56:55;;;;;;;24.08;9.95;;;;;;;;;;5019905;28;20122;-58
2021/11/15 13:59:22;;;;;;;30.27;11.77;;;;;;;;;;5018259;28;20393;-58
2021/11/15 14:01:48;;;;;;;26.05;10.70;;;;;;;;;;5022770;28;20029;-58
2021/11/15 14:04:13;;;;;;;28.75;11.80;;;;;;;;;;5016597;28;20391;-57
2021/11/15 14:06:42;;;;;;;29.08;11.27;;;;;;;;;;5018542;28;20044;-56
2021/11/15 14:09:08;;;;;;;33.83;12.55;;;;;;;;;;5016282;28;20099;-57
2021/11/15 14:11:34;;;;;;;30.10;10.80;;;;;;;;;;5018446;28;20080;-58
2021/11/15 14:13:59;;;;;;;31.60;12.90;;;;;;;;;;5022324;28;20033;-57
2021/11/15 14:16:25;;;;;;;28.63;11.48;;;;;;;;;;5018441;28;20092;-58
2021/11/15 14:18:50;;;;;;;34.60;13.02;;;;;;;;;;5025458;28;20468;-57
2021/11/15 14:21:16;;;;;;;31.92;12.73;;;;;;;;;;5016834;28;20407;-55
2021/11/15 14:23:41;;;;;;;33.28;12.93;;;;;;;;;;5023464;28;20426;-57
2021/11/15 14:26:07;;;;;;;29.80;11.60;;;;;;;;;;5022028;28;20041;-56
2021/11/15 14:28:33;;;;;;;33.22;12.48;;;;;;;;;;5015435;28;20469;-57
2021/11/15 14:30:58;;;;;;;32.88;12.30;;;;;;;;;;5024686;28;20062;-56